Terminal Aerodrome Forecast
Issued by NWS

Home | Current Version | Previous Version | Text Only | Print | Product List | Glossary On
Versions: 1 2 3 4 5 6 7 8 9 10 11 12 13 14 15 16 17 18 19 20 21 22 23 24 25 26 27
000
FTUS43 KDVN 270200 AAA
TAFBRL
TAF AMD
KBRL 270252Z 2703/2724 02010KT 4SM -SN BR OVC012
     FM270400 02006KT 5SM -SN BR OVC012
     FM270500 34010KT P6SM OVC010
     FM271600 32010KT P6SM SCT025=

USA.gov is the U.S. government's official web portal to all federal, state and local government web resources and services.